sensor_id;sensor_type;location;lat;lon;timestamp;P1;durP1;ratioP1;P2;durP2;ratioP2
5014;SDS011;2526;51.060;4.228;2022-08-25T00:00:35;4.38;;;2.55;;
5014;SDS011;2526;51.060;4.228;2022-08-25T00:03:00;4.18;;;2.92;;
5014;SDS011;2526;51.060;4.228;2022-08-25T00:05:27;2.95;;;2.20;;
5014;SDS011;2526;51.060;4.228;2022-08-25T00:07:52;5.35;;;2.95;;
5014;SDS011;2526;51.060;4.228;2022-08-25T00:10:18;7.45;;;3.78;;
5014;SDS011;2526;51.060;4.228;2022-08-25T00:12:44;5.95;;;3.83;;
5014;SDS011;2526;51.060;4.228;2022-08-25T00:15:10;4.65;;;3.22;;
5014;SDS011;2526;51.060;4.228;2022-08-25T00:17:35;5.88;;;3.75;;
5014;SDS011;2526;51.060;4.228;2022-08-25T00:20:01;7.32;;;3.40;;
5014;SDS011;2526;51.060;4.228;2022-08-25T00:22:27;3.88;;;2.83;;
5014;SDS011;2526;51.060;4.228;2022-08-25T00:24:53;5.38;;;3.05;;
5014;SDS011;2526;51.060;4.228;2022-08-25T00:27:18;6.68;;;3.80;;
5014;SDS011;2526;51.060;4.228;2022-08-25T00:29:44;4.63;;;3.15;;
5014;SDS011;2526;51.060;4.228;2022-08-25T00:32:09;4.75;;;2.97;;
5014;SDS011;2526;51.060;4.228;2022-08-25T00:34:35;3.85;;;2.80;;
5014;SDS011;2526;51.060;4.228;2022-08-25T00:37:02;11.02;;;3.55;;
5014;SDS011;2526;51.060;4.228;2022-08-25T00:39:28;7.78;;;3.15;;
5014;SDS011;2526;51.060;4.228;2022-08-25T00:41:55;4.30;;;2.55;;
5014;SDS011;2526;51.060;4.228;2022-08-25T00:44:22;3.90;;;2.63;;
5014;SDS011;2526;51.060;4.228;2022-08-25T00:46:49;9.23;;;3.47;;
5014;SDS011;2526;51.060;4.228;2022-08-25T00:49:19;3.47;;;2.80;;
5014;SDS011;2526;51.060;4.228;2022-08-25T00:51:48;3.65;;;2.63;;
5014;SDS011;2526;51.060;4.228;2022-08-25T00:54:19;4.72;;;3.50;;
5014;SDS011;2526;51.060;4.228;2022-08-25T00:56:47;3.80;;;2.88;;
5014;SDS011;2526;51.060;4.228;2022-08-25T00:59:12;3.10;;;2.20;;
5014;SDS011;2526;51.060;4.228;2022-08-25T01:01:38;3.47;;;3.17;;
5014;SDS011;2526;51.060;4.228;2022-08-25T01:04:04;2.95;;;2.15;;
5014;SDS011;2526;51.060;4.228;2022-08-25T01:06:30;4.97;;;3.20;;
5014;SDS011;2526;51.060;4.228;2022-08-25T01:08:58;4.10;;;2.97;;
5014;SDS011;2526;51.060;4.228;2022-08-25T01:11:23;8.07;;;3.53;;
5014;SDS011;2526;51.060;4.228;2022-08-25T01:13:53;6.45;;;4.13;;
5014;SDS011;2526;51.060;4.228;2022-08-25T01:16:19;4.45;;;3.65;;
5014;SDS011;2526;51.060;4.228;2022-08-25T01:18:49;5.80;;;4.20;;
5014;SDS011;2526;51.060;4.228;2022-08-25T01:21:16;4.65;;;3.63;;
5014;SDS011;2526;51.060;4.228;2022-08-25T01:23:42;5.18;;;3.95;;
5014;SDS011;2526;51.060;4.228;2022-08-25T01:26:09;3.05;;;2.20;;
5014;SDS011;2526;51.060;4.228;2022-08-25T01:28:35;4.95;;;4.00;;
5014;SDS011;2526;51.060;4.228;2022-08-25T01:31:01;3.47;;;3.00;;
5014;SDS011;2526;51.060;4.228;2022-08-25T01:33:26;5.88;;;4.70;;
5014;SDS011;2526;51.060;4.228;2022-08-25T01:35:52;5.72;;;3.92;;
5014;SDS011;2526;51.060;4.228;2022-08-25T01:38:18;5.10;;;2.70;;
5014;SDS011;2526;51.060;4.228;2022-08-25T01:40:45;4.97;;;3.60;;
5014;SDS011;2526;51.060;4.228;2022-08-25T01:45:37;3.40;;;2.90;;
5014;SDS011;2526;51.060;4.228;2022-08-25T01:48:03;3.55;;;2.95;;
5014;SDS011;2526;51.060;4.228;2022-08-25T01:50:29;4.50;;;3.30;;
5014;SDS011;2526;51.060;4.228;2022-08-25T01:53:10;5.95;;;3.42;;
5014;SDS011;2526;51.060;4.228;2022-08-25T01:55:39;9.93;;;4.15;;
5014;SDS011;2526;51.060;4.228;2022-08-25T01:58:18;7.18;;;3.70;;
5014;SDS011;2526;51.060;4.228;2022-08-25T02:00:45;6.22;;;4.43;;
5014;SDS011;2526;51.060;4.228;2022-08-25T02:03:11;9.98;;;4.72;;
5014;SDS011;2526;51.060;4.228;2022-08-25T02:05:36;4.10;;;3.65;;
5014;SDS011;2526;51.060;4.228;2022-08-25T02:08:02;3.53;;;2.55;;
5014;SDS011;2526;51.060;4.228;2022-08-25T02:10:27;10.35;;;4.13;;
5014;SDS011;2526;51.060;4.228;2022-08-25T02:12:53;5.70;;;3.75;;
5014;SDS011;2526;51.060;4.228;2022-08-25T02:15:18;4.85;;;3.10;;
5014;SDS011;2526;51.060;4.228;2022-08-25T02:17:44;5.68;;;3.72;;
5014;SDS011;2526;51.060;4.228;2022-08-25T02:20:10;4.75;;;3.05;;
5014;SDS011;2526;51.060;4.228;2022-08-25T02:22:35;8.25;;;3.95;;
5014;SDS011;2526;51.060;4.228;2022-08-25T02:25:01;6.10;;;3.97;;
5014;SDS011;2526;51.060;4.228;2022-08-25T02:27:27;4.78;;;3.78;;
5014;SDS011;2526;51.060;4.228;2022-08-25T02:29:53;13.38;;;5.07;;
5014;SDS011;2526;51.060;4.228;2022-08-25T02:32:19;6.15;;;4.40;;
5014;SDS011;2526;51.060;4.228;2022-08-25T02:34:44;5.25;;;4.40;;
5014;SDS011;2526;51.060;4.228;2022-08-25T02:37:09;8.80;;;5.40;;
5014;SDS011;2526;51.060;4.228;2022-08-25T02:39:37;7.40;;;5.13;;
5014;SDS011;2526;51.060;4.228;2022-08-25T02:42:02;6.28;;;3.97;;
5014;SDS011;2526;51.060;4.228;2022-08-25T02:44:27;7.85;;;3.50;;
5014;SDS011;2526;51.060;4.228;2022-08-25T02:46:53;6.55;;;4.95;;
5014;SDS011;2526;51.060;4.228;2022-08-25T02:49:18;6.30;;;3.15;;
5014;SDS011;2526;51.060;4.228;2022-08-25T02:51:44;8.02;;;4.07;;
5014;SDS011;2526;51.060;4.228;2022-08-25T02:54:09;4.93;;;3.58;;
5014;SDS011;2526;51.060;4.228;2022-08-25T02:56:35;3.55;;;3.08;;
5014;SDS011;2526;51.060;4.228;2022-08-25T02:59:00;5.93;;;4.18;;
5014;SDS011;2526;51.060;4.228;2022-08-25T03:01:27;6.05;;;3.53;;
5014;SDS011;2526;51.060;4.228;2022-08-25T03:03:53;7.82;;;4.60;;
5014;SDS011;2526;51.060;4.228;2022-08-25T03:06:19;5.18;;;3.63;;
5014;SDS011;2526;51.060;4.228;2022-08-25T03:08:47;10.07;;;4.32;;
5014;SDS011;2526;51.060;4.228;2022-08-25T03:11:12;9.80;;;4.07;;
5014;SDS011;2526;51.060;4.228;2022-08-25T03:13:38;8.13;;;5.60;;
5014;SDS011;2526;51.060;4.228;2022-08-25T03:16:04;9.30;;;6.07;;
5014;SDS011;2526;51.060;4.228;2022-08-25T03:18:30;5.68;;;3.65;;
5014;SDS011;2526;51.060;4.228;2022-08-25T03:20:55;6.03;;;5.38;;
5014;SDS011;2526;51.060;4.228;2022-08-25T03:23:21;10.63;;;4.32;;
5014;SDS011;2526;51.060;4.228;2022-08-25T03:25:46;4.55;;;4.10;;
5014;SDS011;2526;51.060;4.228;2022-08-25T03:28:30;7.05;;;4.38;;
5014;SDS011;2526;51.060;4.228;2022-08-25T03:30:57;5.07;;;3.58;;
5014;SDS011;2526;51.060;4.228;2022-08-25T03:33:25;7.85;;;3.88;;
5014;SDS011;2526;51.060;4.228;2022-08-25T03:35:50;4.97;;;4.53;;
5014;SDS011;2526;51.060;4.228;2022-08-25T03:38:15;9.20;;;4.68;;
5014;SDS011;2526;51.060;4.228;2022-08-25T03:40:41;6.85;;;4.90;;
5014;SDS011;2526;51.060;4.228;2022-08-25T03:43:07;14.95;;;5.70;;
5014;SDS011;2526;51.060;4.228;2022-08-25T03:45:32;7.05;;;5.57;;
5014;SDS011;2526;51.060;4.228;2022-08-25T03:47:58;9.95;;;6.70;;
5014;SDS011;2526;51.060;4.228;2022-08-25T03:50:23;8.23;;;4.50;;
5014;SDS011;2526;51.060;4.228;2022-08-25T03:52:53;13.50;;;6.15;;
5014;SDS011;2526;51.060;4.228;2022-08-25T03:55:19;8.75;;;6.15;;
5014;SDS011;2526;51.060;4.228;2022-08-25T03:57:45;11.13;;;6.30;;
5014;SDS011;2526;51.060;4.228;2022-08-25T04:00:11;7.35;;;5.65;;
5014;SDS011;2526;51.060;4.228;2022-08-25T04:02:36;6.78;;;5.45;;
5014;SDS011;2526;51.060;4.228;2022-08-25T04:05:02;7.90;;;5.28;;
5014;SDS011;2526;51.060;4.228;2022-08-25T04:07:28;10.20;;;6.65;;
5014;SDS011;2526;51.060;4.228;2022-08-25T04:09:53;7.88;;;5.93;;
5014;SDS011;2526;51.060;4.228;2022-08-25T04:12:20;8.85;;;4.20;;
5014;SDS011;2526;51.060;4.228;2022-08-25T04:14:46;7.25;;;5.25;;
5014;SDS011;2526;51.060;4.228;2022-08-25T04:17:12;8.10;;;4.90;;
5014;SDS011;2526;51.060;4.228;2022-08-25T04:19:38;8.95;;;5.97;;
5014;SDS011;2526;51.060;4.228;2022-08-25T04:22:03;6.00;;;4.75;;
5014;SDS011;2526;51.060;4.228;2022-08-25T04:24:29;6.25;;;5.60;;
5014;SDS011;2526;51.060;4.228;2022-08-25T04:26:54;7.20;;;5.45;;
5014;SDS011;2526;51.060;4.228;2022-08-25T04:29:21;12.48;;;8.45;;
5014;SDS011;2526;51.060;4.228;2022-08-25T04:31:46;8.30;;;6.63;;
5014;SDS011;2526;51.060;4.228;2022-08-25T04:34:14;8.25;;;6.72;;
5014;SDS011;2526;51.060;4.228;2022-08-25T04:36:40;9.77;;;5.88;;
5014;SDS011;2526;51.060;4.228;2022-08-25T04:39:06;10.15;;;5.60;;
5014;SDS011;2526;51.060;4.228;2022-08-25T04:41:31;11.82;;;5.90;;
5014;SDS011;2526;51.060;4.228;2022-08-25T04:43:57;8.00;;;5.90;;
5014;SDS011;2526;51.060;4.228;2022-08-25T04:46:24;9.07;;;6.85;;
5014;SDS011;2526;51.060;4.228;2022-08-25T04:48:50;10.85;;;7.15;;
5014;SDS011;2526;51.060;4.228;2022-08-25T04:51:19;10.45;;;7.18;;
5014;SDS011;2526;51.060;4.228;2022-08-25T04:53:45;14.95;;;8.30;;
5014;SDS011;2526;51.060;4.228;2022-08-25T04:56:12;10.90;;;8.40;;
5014;SDS011;2526;51.060;4.228;2022-08-25T04:58:38;8.20;;;6.72;;
5014;SDS011;2526;51.060;4.228;2022-08-25T05:01:07;7.90;;;6.43;;
5014;SDS011;2526;51.060;4.228;2022-08-25T05:03:33;14.55;;;8.50;;
5014;SDS011;2526;51.060;4.228;2022-08-25T05:05:59;11.27;;;8.48;;
5014;SDS011;2526;51.060;4.228;2022-08-25T05:08:25;10.05;;;8.38;;
5014;SDS011;2526;51.060;4.228;2022-08-25T05:10:51;8.50;;;7.32;;
5014;SDS011;2526;51.060;4.228;2022-08-25T05:13:22;11.50;;;9.00;;
5014;SDS011;2526;51.060;4.228;2022-08-25T05:15:54;11.65;;;7.75;;
5014;SDS011;2526;51.060;4.228;2022-08-25T05:18:20;7.72;;;6.75;;
5014;SDS011;2526;51.060;4.228;2022-08-25T05:20:47;16.80;;;9.52;;
5014;SDS011;2526;51.060;4.228;2022-08-25T05:23:12;13.07;;;9.75;;
5014;SDS011;2526;51.060;4.228;2022-08-25T05:25:37;11.23;;;8.52;;
5014;SDS011;2526;51.060;4.228;2022-08-25T05:28:03;8.35;;;7.47;;
5014;SDS011;2526;51.060;4.228;2022-08-25T05:30:28;19.00;;;8.73;;
5014;SDS011;2526;51.060;4.228;2022-08-25T05:32:54;10.23;;;7.70;;
5014;SDS011;2526;51.060;4.228;2022-08-25T05:35:19;9.82;;;8.00;;
5014;SDS011;2526;51.060;4.228;2022-08-25T05:37:45;12.90;;;7.88;;
5014;SDS011;2526;51.060;4.228;2022-08-25T05:40:11;6.82;;;6.05;;
5014;SDS011;2526;51.060;4.228;2022-08-25T05:42:37;9.95;;;6.25;;
5014;SDS011;2526;51.060;4.228;2022-08-25T05:45:06;9.77;;;7.03;;
5014;SDS011;2526;51.060;4.228;2022-08-25T05:47:32;7.10;;;6.15;;
5014;SDS011;2526;51.060;4.228;2022-08-25T05:49:57;10.45;;;7.20;;
5014;SDS011;2526;51.060;4.228;2022-08-25T05:52:23;10.32;;;7.90;;
5014;SDS011;2526;51.060;4.228;2022-08-25T05:54:50;8.68;;;6.20;;
5014;SDS011;2526;51.060;4.228;2022-08-25T05:57:16;11.52;;;7.20;;
5014;SDS011;2526;51.060;4.228;2022-08-25T05:59:41;13.43;;;7.95;;
5014;SDS011;2526;51.060;4.228;2022-08-25T06:02:07;15.70;;;7.45;;
5014;SDS011;2526;51.060;4.228;2022-08-25T06:04:51;9.65;;;7.13;;
5014;SDS011;2526;51.060;4.228;2022-08-25T06:07:16;10.15;;;7.20;;
5014;SDS011;2526;51.060;4.228;2022-08-25T06:09:42;10.20;;;7.10;;
5014;SDS011;2526;51.060;4.228;2022-08-25T06:12:10;12.02;;;7.30;;
5014;SDS011;2526;51.060;4.228;2022-08-25T06:14:35;7.22;;;5.60;;
5014;SDS011;2526;51.060;4.228;2022-08-25T06:17:01;8.52;;;6.13;;
5014;SDS011;2526;51.060;4.228;2022-08-25T06:19:26;15.13;;;6.97;;
5014;SDS011;2526;51.060;4.228;2022-08-25T06:21:53;8.65;;;5.95;;
5014;SDS011;2526;51.060;4.228;2022-08-25T06:24:19;9.23;;;7.45;;
5014;SDS011;2526;51.060;4.228;2022-08-25T06:26:45;28.17;;;8.50;;
5014;SDS011;2526;51.060;4.228;2022-08-25T06:29:10;10.20;;;6.95;;
5014;SDS011;2526;51.060;4.228;2022-08-25T06:31:38;12.93;;;7.15;;
5014;SDS011;2526;51.060;4.228;2022-08-25T06:34:03;11.32;;;7.45;;
5014;SDS011;2526;51.060;4.228;2022-08-25T06:36:30;12.07;;;7.43;;
5014;SDS011;2526;51.060;4.228;2022-08-25T06:38:55;11.75;;;7.13;;
5014;SDS011;2526;51.060;4.228;2022-08-25T06:41:21;8.50;;;7.00;;
5014;SDS011;2526;51.060;4.228;2022-08-25T06:43:46;11.13;;;7.95;;
5014;SDS011;2526;51.060;4.228;2022-08-25T06:46:13;8.77;;;7.28;;
5014;SDS011;2526;51.060;4.228;2022-08-25T06:48:39;9.52;;;5.88;;
5014;SDS011;2526;51.060;4.228;2022-08-25T06:51:08;9.98;;;5.57;;
5014;SDS011;2526;51.060;4.228;2022-08-25T06:53:34;14.90;;;6.75;;
5014;SDS011;2526;51.060;4.228;2022-08-25T06:55:59;6.93;;;5.43;;
5014;SDS011;2526;51.060;4.228;2022-08-25T06:58:25;10.38;;;6.15;;
5014;SDS011;2526;51.060;4.228;2022-08-25T07:00:51;8.38;;;6.18;;
5014;SDS011;2526;51.060;4.228;2022-08-25T07:03:16;5.85;;;4.50;;
5014;SDS011;2526;51.060;4.228;2022-08-25T07:05:48;9.25;;;5.03;;
5014;SDS011;2526;51.060;4.228;2022-08-25T07:08:14;11.68;;;5.93;;
5014;SDS011;2526;51.060;4.228;2022-08-25T07:10:40;9.95;;;4.85;;
5014;SDS011;2526;51.060;4.228;2022-08-25T07:13:06;5.47;;;4.68;;
5014;SDS011;2526;51.060;4.228;2022-08-25T07:15:36;7.88;;;5.00;;
5014;SDS011;2526;51.060;4.228;2022-08-25T07:18:02;23.02;;;5.05;;
5014;SDS011;2526;51.060;4.228;2022-08-25T07:20:27;6.05;;;4.35;;
5014;SDS011;2526;51.060;4.228;2022-08-25T07:22:53;6.72;;;3.17;;
5014;SDS011;2526;51.060;4.228;2022-08-25T07:25:19;7.65;;;4.32;;
5014;SDS011;2526;51.060;4.228;2022-08-25T07:27:45;18.85;;;6.22;;
5014;SDS011;2526;51.060;4.228;2022-08-25T07:30:10;9.02;;;4.18;;
5014;SDS011;2526;51.060;4.228;2022-08-25T07:32:35;11.13;;;4.18;;
5014;SDS011;2526;51.060;4.228;2022-08-25T07:35:01;10.02;;;4.60;;
5014;SDS011;2526;51.060;4.228;2022-08-25T07:37:53;7.28;;;4.03;;
5014;SDS011;2526;51.060;4.228;2022-08-25T07:40:33;6.45;;;4.95;;
5014;SDS011;2526;51.060;4.228;2022-08-25T07:43:00;14.07;;;5.60;;
5014;SDS011;2526;51.060;4.228;2022-08-25T07:45:27;7.85;;;3.33;;
5014;SDS011;2526;51.060;4.228;2022-08-25T07:48:13;5.72;;;3.33;;
5014;SDS011;2526;51.060;4.228;2022-08-25T07:53:04;5.47;;;3.17;;
5014;SDS011;2526;51.060;4.228;2022-08-25T07:55:30;9.55;;;3.50;;
5014;SDS011;2526;51.060;4.228;2022-08-25T07:57:56;6.65;;;3.20;;
5014;SDS011;2526;51.060;4.228;2022-08-25T08:00:24;7.20;;;3.53;;
5014;SDS011;2526;51.060;4.228;2022-08-25T08:02:51;17.75;;;2.78;;
5014;SDS011;2526;51.060;4.228;2022-08-25T08:05:17;4.10;;;2.92;;
5014;SDS011;2526;51.060;4.228;2022-08-25T08:07:42;5.93;;;3.25;;
5014;SDS011;2526;51.060;4.228;2022-08-25T08:10:08;8.35;;;2.75;;
5014;SDS011;2526;51.060;4.228;2022-08-25T08:12:35;4.80;;;2.75;;
5014;SDS011;2526;51.060;4.228;2022-08-25T08:15:01;4.35;;;2.25;;
5014;SDS011;2526;51.060;4.228;2022-08-25T08:17:28;4.47;;;2.58;;
5014;SDS011;2526;51.060;4.228;2022-08-25T08:19:53;10.55;;;2.60;;
5014;SDS011;2526;51.060;4.228;2022-08-25T08:22:19;4.95;;;2.40;;
5014;SDS011;2526;51.060;4.228;2022-08-25T08:24:45;6.97;;;1.55;;
5014;SDS011;2526;51.060;4.228;2022-08-25T08:27:11;4.57;;;2.63;;
5014;SDS011;2526;51.060;4.228;2022-08-25T08:29:37;6.15;;;1.98;;
5014;SDS011;2526;51.060;4.228;2022-08-25T08:32:04;3.15;;;1.80;;
5014;SDS011;2526;51.060;4.228;2022-08-25T08:34:29;4.20;;;2.22;;
5014;SDS011;2526;51.060;4.228;2022-08-25T08:36:55;3.05;;;1.70;;
5014;SDS011;2526;51.060;4.228;2022-08-25T08:39:21;3.47;;;2.08;;
5014;SDS011;2526;51.060;4.228;2022-08-25T08:55:24;15.77;;;2.65;;
5014;SDS011;2526;51.060;4.228;2022-08-25T08:57:50;7.60;;;3.58;;
5014;SDS011;2526;51.060;4.228;2022-08-25T09:00:17;3.88;;;2.53;;
5014;SDS011;2526;51.060;4.228;2022-08-25T09:05:14;5.60;;;2.05;;
5014;SDS011;2526;51.060;4.228;2022-08-25T09:07:44;3.45;;;1.50;;
5014;SDS011;2526;51.060;4.228;2022-08-25T09:10:13;6.68;;;2.28;;
5014;SDS011;2526;51.060;4.228;2022-08-25T09:12:42;4.03;;;1.63;;
5014;SDS011;2526;51.060;4.228;2022-08-25T09:23:19;4.13;;;2.00;;
5014;SDS011;2526;51.060;4.228;2022-08-25T09:31:04;5.38;;;1.50;;
5014;SDS011;2526;51.060;4.228;2022-08-25T09:33:29;6.45;;;2.80;;
5014;SDS011;2526;51.060;4.228;2022-08-25T09:35:55;6.03;;;2.13;;
5014;SDS011;2526;51.060;4.228;2022-08-25T09:38:21;5.47;;;2.85;;
5014;SDS011;2526;51.060;4.228;2022-08-25T09:40:49;8.25;;;2.47;;
5014;SDS011;2526;51.060;4.228;2022-08-25T09:43:34;6.35;;;2.45;;
5014;SDS011;2526;51.060;4.228;2022-08-25T09:46:11;5.78;;;2.30;;
5014;SDS011;2526;51.060;4.228;2022-08-25T09:48:44;19.00;;;2.33;;
5014;SDS011;2526;51.060;4.228;2022-08-25T09:56:21;16.15;;;2.03;;
5014;SDS011;2526;51.060;4.228;2022-08-25T09:58:47;3.95;;;1.48;;
5014;SDS011;2526;51.060;4.228;2022-08-25T10:01:17;4.22;;;2.17;;
5014;SDS011;2526;51.060;4.228;2022-08-25T10:04:00;5.85;;;1.63;;
5014;SDS011;2526;51.060;4.228;2022-08-25T10:06:44;2.42;;;1.70;;
5014;SDS011;2526;51.060;4.228;2022-08-25T10:09:13;1.63;;;1.15;;
5014;SDS011;2526;51.060;4.228;2022-08-25T10:11:46;2.65;;;1.92;;
5014;SDS011;2526;51.060;4.228;2022-08-25T10:16:47;4.65;;;1.55;;
5014;SDS011;2526;51.060;4.228;2022-08-25T10:19:21;3.35;;;1.65;;
5014;SDS011;2526;51.060;4.228;2022-08-25T10:22:10;7.30;;;1.98;;
5014;SDS011;2526;51.060;4.228;2022-08-25T10:24:37;6.68;;;1.23;;
5014;SDS011;2526;51.060;4.228;2022-08-25T10:37:05;1.92;;;1.13;;
5014;SDS011;2526;51.060;4.228;2022-08-25T10:39:43;7.60;;;1.00;;
5014;SDS011;2526;51.060;4.228;2022-08-25T10:50:42;10.35;;;2.30;;
5014;SDS011;2526;51.060;4.228;2022-08-25T10:55:25;9.13;;;1.65;;
5014;SDS011;2526;51.060;4.228;2022-08-25T11:00:39;3.50;;;1.45;;
5014;SDS011;2526;51.060;4.228;2022-08-25T11:03:13;2.20;;;1.00;;
5014;SDS011;2526;51.060;4.228;2022-08-25T11:08:11;3.28;;;1.45;;
5014;SDS011;2526;51.060;4.228;2022-08-25T11:10:43;4.95;;;1.70;;
5014;SDS011;2526;51.060;4.228;2022-08-25T11:16:09;4.35;;;1.80;;
5014;SDS011;2526;51.060;4.228;2022-08-25T11:18:35;2.90;;;1.52;;
5014;SDS011;2526;51.060;4.228;2022-08-25T11:24:00;5.55;;;1.17;;
5014;SDS011;2526;51.060;4.228;2022-08-25T11:26:31;1.67;;;0.88;;
5014;SDS011;2526;51.060;4.228;2022-08-25T11:29:04;6.45;;;0.85;;
5014;SDS011;2526;51.060;4.228;2022-08-25T11:31:34;4.18;;;0.90;;
5014;SDS011;2526;51.060;4.228;2022-08-25T11:34:01;3.88;;;1.08;;
5014;SDS011;2526;51.060;4.228;2022-08-25T11:36:33;6.07;;;0.98;;
5014;SDS011;2526;51.060;4.228;2022-08-25T11:41:38;3.67;;;1.17;;
5014;SDS011;2526;51.060;4.228;2022-08-25T11:51:40;1.60;;;1.42;;
5014;SDS011;2526;51.060;4.228;2022-08-25T11:54:25;2.45;;;1.33;;
5014;SDS011;2526;51.060;4.228;2022-08-25T11:56:58;1.85;;;1.30;;
5014;SDS011;2526;51.060;4.228;2022-08-25T12:02:33;1.20;;;0.98;;
5014;SDS011;2526;51.060;4.228;2022-08-25T12:05:04;1.25;;;1.15;;
5014;SDS011;2526;51.060;4.228;2022-08-25T12:08:16;1.73;;;1.33;;
5014;SDS011;2526;51.060;4.228;2022-08-25T12:10:57;1.80;;;1.27;;
5014;SDS011;2526;51.060;4.228;2022-08-25T12:13:37;2.05;;;1.00;;
5014;SDS011;2526;51.060;4.228;2022-08-25T12:16:04;2.50;;;1.08;;
5014;SDS011;2526;51.060;4.228;2022-08-25T12:23:31;1.75;;;1.65;;
5014;SDS011;2526;51.060;4.228;2022-08-25T12:25:59;3.35;;;1.48;;
5014;SDS011;2526;51.060;4.228;2022-08-25T12:28:35;2.67;;;1.65;;
5014;SDS011;2526;51.060;4.228;2022-08-25T12:31:29;2.75;;;1.60;;
5014;SDS011;2526;51.060;4.228;2022-08-25T12:34:01;2.58;;;1.73;;
5014;SDS011;2526;51.060;4.228;2022-08-25T12:36:31;1.73;;;0.90;;
5014;SDS011;2526;51.060;4.228;2022-08-25T12:39:16;11.23;;;2.25;;
5014;SDS011;2526;51.060;4.228;2022-08-25T12:41:53;4.28;;;1.70;;
5014;SDS011;2526;51.060;4.228;2022-08-25T12:44:41;2.88;;;1.17;;
5014;SDS011;2526;51.060;4.228;2022-08-25T12:47:06;3.85;;;1.35;;
5014;SDS011;2526;51.060;4.228;2022-08-25T12:49:35;3.35;;;2.10;;
5014;SDS011;2526;51.060;4.228;2022-08-25T12:52:34;10.48;;;1.73;;
5014;SDS011;2526;51.060;4.228;2022-08-25T12:54:59;2.00;;;1.08;;
5014;SDS011;2526;51.060;4.228;2022-08-25T12:57:49;3.20;;;1.27;;
5014;SDS011;2526;51.060;4.228;2022-08-25T13:00:23;3.00;;;1.35;;
5014;SDS011;2526;51.060;4.228;2022-08-25T13:10:49;10.10;;;4.72;;
5014;SDS011;2526;51.060;4.228;2022-08-25T13:13:30;14.35;;;5.43;;
5014;SDS011;2526;51.060;4.228;2022-08-25T13:16:02;7.28;;;5.00;;
5014;SDS011;2526;51.060;4.228;2022-08-25T13:18:30;7.78;;;5.00;;
5014;SDS011;2526;51.060;4.228;2022-08-25T13:21:01;19.70;;;5.70;;
5014;SDS011;2526;51.060;4.228;2022-08-25T13:23:28;10.68;;;6.45;;
5014;SDS011;2526;51.060;4.228;2022-08-25T13:25:54;15.48;;;4.15;;
5014;SDS011;2526;51.060;4.228;2022-08-25T13:28:28;6.57;;;5.53;;
5014;SDS011;2526;51.060;4.228;2022-08-25T13:33:20;5.38;;;3.92;;
5014;SDS011;2526;51.060;4.228;2022-08-25T13:35:46;6.97;;;3.92;;
5014;SDS011;2526;51.060;4.228;2022-08-25T13:38:13;4.60;;;3.42;;
5014;SDS011;2526;51.060;4.228;2022-08-25T13:40:39;7.50;;;4.55;;
5014;SDS011;2526;51.060;4.228;2022-08-25T13:43:05;7.18;;;4.70;;
5014;SDS011;2526;51.060;4.228;2022-08-25T13:45:33;10.27;;;5.82;;
5014;SDS011;2526;51.060;4.228;2022-08-25T13:48:01;6.97;;;4.55;;
5014;SDS011;2526;51.060;4.228;2022-08-25T13:50:28;9.02;;;5.95;;
5014;SDS011;2526;51.060;4.228;2022-08-25T13:53:02;12.43;;;4.80;;
5014;SDS011;2526;51.060;4.228;2022-08-25T13:58:05;6.53;;;4.88;;
5014;SDS011;2526;51.060;4.228;2022-08-25T14:00:39;8.48;;;4.40;;
5014;SDS011;2526;51.060;4.228;2022-08-25T14:03:05;6.18;;;4.03;;
5014;SDS011;2526;51.060;4.228;2022-08-25T14:05:32;9.38;;;3.58;;
5014;SDS011;2526;51.060;4.228;2022-08-25T14:07:58;14.57;;;3.88;;
5014;SDS011;2526;51.060;4.228;2022-08-25T14:13:30;5.20;;;3.08;;
5014;SDS011;2526;51.060;4.228;2022-08-25T14:15:47;7.50;;;4.07;;
5014;SDS011;2526;51.060;4.228;2022-08-25T14:18:16;11.32;;;3.88;;
5014;SDS011;2526;51.060;4.228;2022-08-25T14:20:48;4.07;;;2.58;;
5014;SDS011;2526;51.060;4.228;2022-08-25T14:23:19;9.70;;;3.50;;
5014;SDS011;2526;51.060;4.228;2022-08-25T14:25:45;5.07;;;2.83;;
5014;SDS011;2526;51.060;4.228;2022-08-25T14:28:13;6.72;;;2.80;;
5014;SDS011;2526;51.060;4.228;2022-08-25T14:30:41;3.85;;;2.85;;
5014;SDS011;2526;51.060;4.228;2022-08-25T14:33:07;5.32;;;3.20;;
5014;SDS011;2526;51.060;4.228;2022-08-25T14:35:33;3.33;;;2.45;;
5014;SDS011;2526;51.060;4.228;2022-08-25T14:38:07;8.82;;;3.03;;
5014;SDS011;2526;51.060;4.228;2022-08-25T14:40:33;5.10;;;3.42;;
5014;SDS011;2526;51.060;4.228;2022-08-25T14:42:59;2.90;;;2.47;;
5014;SDS011;2526;51.060;4.228;2022-08-25T14:45:25;3.78;;;2.92;;
5014;SDS011;2526;51.060;4.228;2022-08-25T14:47:51;6.75;;;5.72;;
5014;SDS011;2526;51.060;4.228;2022-08-25T14:50:16;4.53;;;3.88;;
5014;SDS011;2526;51.060;4.228;2022-08-25T14:52:43;9.05;;;4.25;;
5014;SDS011;2526;51.060;4.228;2022-08-25T14:55:09;6.35;;;4.93;;
5014;SDS011;2526;51.060;4.228;2022-08-25T14:57:35;13.55;;;4.72;;
5014;SDS011;2526;51.060;4.228;2022-08-25T15:00:01;8.52;;;5.88;;
5014;SDS011;2526;51.060;4.228;2022-08-25T15:02:30;12.25;;;5.25;;
5014;SDS011;2526;51.060;4.228;2022-08-25T15:04:57;8.13;;;5.25;;
5014;SDS011;2526;51.060;4.228;2022-08-25T15:07:24;8.13;;;6.50;;
5014;SDS011;2526;51.060;4.228;2022-08-25T15:10:08;16.15;;;6.07;;
5014;SDS011;2526;51.060;4.228;2022-08-25T15:12:34;6.63;;;5.25;;
5014;SDS011;2526;51.060;4.228;2022-08-25T15:14:59;5.55;;;4.47;;
5014;SDS011;2526;51.060;4.228;2022-08-25T15:17:26;15.20;;;5.85;;
5014;SDS011;2526;51.060;4.228;2022-08-25T15:19:51;7.95;;;6.15;;
5014;SDS011;2526;51.060;4.228;2022-08-25T15:22:17;18.80;;;7.43;;
5014;SDS011;2526;51.060;4.228;2022-08-25T15:24:42;15.27;;;9.15;;
5014;SDS011;2526;51.060;4.228;2022-08-25T15:27:08;14.75;;;8.38;;
5014;SDS011;2526;51.060;4.228;2022-08-25T15:29:34;17.00;;;9.63;;
5014;SDS011;2526;51.060;4.228;2022-08-25T15:32:00;12.80;;;9.20;;
5014;SDS011;2526;51.060;4.228;2022-08-25T15:34:57;16.48;;;9.63;;
5014;SDS011;2526;51.060;4.228;2022-08-25T15:37:25;18.65;;;11.02;;
5014;SDS011;2526;51.060;4.228;2022-08-25T15:39:51;15.70;;;11.82;;
5014;SDS011;2526;51.060;4.228;2022-08-25T15:42:16;16.65;;;11.80;;
5014;SDS011;2526;51.060;4.228;2022-08-25T15:44:42;12.18;;;8.95;;
5014;SDS011;2526;51.060;4.228;2022-08-25T15:47:08;15.30;;;11.48;;
5014;SDS011;2526;51.060;4.228;2022-08-25T15:49:34;18.13;;;10.27;;
5014;SDS011;2526;51.060;4.228;2022-08-25T15:51:59;12.00;;;9.90;;
5014;SDS011;2526;51.060;4.228;2022-08-25T15:54:25;13.13;;;11.30;;
5014;SDS011;2526;51.060;4.228;2022-08-25T15:56:51;17.00;;;10.52;;
5014;SDS011;2526;51.060;4.228;2022-08-25T15:59:17;12.10;;;10.55;;
5014;SDS011;2526;51.060;4.228;2022-08-25T16:01:42;13.65;;;9.98;;
5014;SDS011;2526;51.060;4.228;2022-08-25T16:04:08;12.50;;;8.75;;
5014;SDS011;2526;51.060;4.228;2022-08-25T16:06:34;14.25;;;8.38;;
5014;SDS011;2526;51.060;4.228;2022-08-25T16:09:00;10.73;;;7.30;;
5014;SDS011;2526;51.060;4.228;2022-08-25T16:11:27;12.02;;;9.32;;
5014;SDS011;2526;51.060;4.228;2022-08-25T16:13:53;11.23;;;7.32;;
5014;SDS011;2526;51.060;4.228;2022-08-25T16:16:20;10.25;;;7.65;;
5014;SDS011;2526;51.060;4.228;2022-08-25T16:18:46;10.70;;;6.53;;
5014;SDS011;2526;51.060;4.228;2022-08-25T16:21:13;10.73;;;7.07;;
5014;SDS011;2526;51.060;4.228;2022-08-25T16:23:39;12.68;;;7.75;;
5014;SDS011;2526;51.060;4.228;2022-08-25T16:26:05;10.63;;;7.38;;
5014;SDS011;2526;51.060;4.228;2022-08-25T16:28:33;15.23;;;7.82;;
5014;SDS011;2526;51.060;4.228;2022-08-25T16:30:59;9.35;;;8.45;;
5014;SDS011;2526;51.060;4.228;2022-08-25T16:33:24;14.90;;;10.63;;
5014;SDS011;2526;51.060;4.228;2022-08-25T16:35:50;13.27;;;10.60;;
5014;SDS011;2526;51.060;4.228;2022-08-25T16:38:15;12.65;;;9.20;;
5014;SDS011;2526;51.060;4.228;2022-08-25T16:40:42;13.98;;;9.68;;
5014;SDS011;2526;51.060;4.228;2022-08-25T16:43:08;10.75;;;8.70;;
5014;SDS011;2526;51.060;4.228;2022-08-25T16:45:34;11.90;;;7.65;;
5014;SDS011;2526;51.060;4.228;2022-08-25T16:48:00;17.05;;;8.38;;
5014;SDS011;2526;51.060;4.228;2022-08-25T16:50:26;12.23;;;6.90;;
5014;SDS011;2526;51.060;4.228;2022-08-25T16:52:54;16.15;;;10.13;;
5014;SDS011;2526;51.060;4.228;2022-08-25T16:55:38;11.90;;;8.57;;
5014;SDS011;2526;51.060;4.228;2022-08-25T16:58:04;13.15;;;9.02;;
5014;SDS011;2526;51.060;4.228;2022-08-25T17:00:29;13.10;;;9.05;;
5014;SDS011;2526;51.060;4.228;2022-08-25T17:02:56;15.68;;;9.55;;